sensor_id;sensor_type;location;lat;lon;timestamp;P1;P2;P0
49343;PMS5003;35210;41.606;-87.602;2023-04-30T00:01:12;4.40;4.00;3.00
49343;PMS5003;35210;41.606;-87.602;2023-04-30T00:03:40;4.20;4.20;4.00
49343;PMS5003;35210;41.606;-87.602;2023-04-30T00:06:08;7.40;6.80;5.00
49343;PMS5003;35210;41.606;-87.602;2023-04-30T00:08:36;3.60;3.60;3.00
49343;PMS5003;35210;41.606;-87.602;2023-04-30T00:11:04;9.20;7.80;6.00
49343;PMS5003;35210;41.606;-87.602;2023-04-30T00:13:34;4.00;4.00;3.00
49343;PMS5003;35210;41.606;-87.602;2023-04-30T00:16:03;7.40;5.00;4.00
49343;PMS5003;35210;41.606;-87.602;2023-04-30T00:18:31;3.60;3.60;3.00
49343;PMS5003;35210;41.606;-87.602;2023-04-30T00:21:00;3.80;3.80;3.00
49343;PMS5003;35210;41.606;-87.602;2023-04-30T00:23:28;5.60;5.60;5.00
49343;PMS5003;35210;41.606;-87.602;2023-04-30T00:25:56;5.20;5.20;4.00
49343;PMS5003;35210;41.606;-87.602;2023-04-30T00:28:24;4.00;4.00;3.00
49343;PMS5003;35210;41.606;-87.602;2023-04-30T00:30:54;4.80;4.00;4.00
49343;PMS5003;35210;41.606;-87.602;2023-04-30T00:33:22;5.80;5.80;5.00
49343;PMS5003;35210;41.606;-87.602;2023-04-30T00:35:50;6.40;5.40;4.00
49343;PMS5003;35210;41.606;-87.602;2023-04-30T00:38:18;5.00;5.00;4.00
49343;PMS5003;35210;41.606;-87.602;2023-04-30T00:40:46;4.40;4.40;3.00
49343;PMS5003;35210;41.606;-87.602;2023-04-30T00:43:15;5.20;4.60;3.60
49343;PMS5003;35210;41.606;-87.602;2023-04-30T00:45:43;5.00;5.00;3.20
49343;PMS5003;35210;41.606;-87.602;2023-04-30T00:48:13;3.80;3.80;3.00
49343;PMS5003;35210;41.606;-87.602;2023-04-30T00:50:42;6.80;5.60;4.20
49343;PMS5003;35210;41.606;-87.602;2023-04-30T00:53:11;6.20;4.60;3.00
49343;PMS5003;35210;41.606;-87.602;2023-04-30T00:55:39;4.80;3.80;2.80
49343;PMS5003;35210;41.606;-87.602;2023-04-30T00:58:08;3.00;3.00;2.40
49343;PMS5003;35210;41.606;-87.602;2023-04-30T01:00:36;2.20;2.20;2.00
49343;PMS5003;35210;41.606;-87.602;2023-04-30T01:03:07;4.00;3.20;2.00
49343;PMS5003;35210;41.606;-87.602;2023-04-30T01:05:37;3.60;3.60;2.60
49343;PMS5003;35210;41.606;-87.602;2023-04-30T01:08:05;3.00;3.00;2.40
49343;PMS5003;35210;41.606;-87.602;2023-04-30T01:10:35;3.60;3.60;3.00
49343;PMS5003;35210;41.606;-87.602;2023-04-30T01:13:11;3.60;3.00;2.40
49343;PMS5003;35210;41.606;-87.602;2023-04-30T01:15:52;2.60;2.00;1.40
49343;PMS5003;35210;41.606;-87.602;2023-04-30T01:18:27;3.60;3.60;2.60
49343;PMS5003;35210;41.606;-87.602;2023-04-30T01:21:01;3.00;3.00;2.80
49343;PMS5003;35210;41.606;-87.602;2023-04-30T01:23:36;4.00;4.00;3.60
49343;PMS5003;35210;41.606;-87.602;2023-04-30T01:26:28;2.40;2.40;2.00
49343;PMS5003;35210;41.606;-87.602;2023-04-30T01:29:23;3.40;3.40;3.00
49343;PMS5003;35210;41.606;-87.602;2023-04-30T01:31:53;4.00;4.00;3.00
49343;PMS5003;35210;41.606;-87.602;2023-04-30T01:34:21;6.20;5.60;4.00
49343;PMS5003;35210;41.606;-87.602;2023-04-30T01:36:52;4.00;3.80;2.40
49343;PMS5003;35210;41.606;-87.602;2023-04-30T01:39:34;4.40;4.00;4.00
49343;PMS5003;35210;41.606;-87.602;2023-04-30T01:42:18;3.00;3.00;2.40
49343;PMS5003;35210;41.606;-87.602;2023-04-30T01:45:00;5.20;5.20;4.00
49343;PMS5003;35210;41.606;-87.602;2023-04-30T01:47:46;4.00;4.00;3.00
49343;PMS5003;35210;41.606;-87.602;2023-04-30T01:50:22;3.80;3.80;3.00
49343;PMS5003;35210;41.606;-87.602;2023-04-30T01:52:57;3.60;3.60;2.80
49343;PMS5003;35210;41.606;-87.602;2023-04-30T01:55:29;5.80;4.60;3.20
49343;PMS5003;35210;41.606;-87.602;2023-04-30T01:58:04;3.00;3.00;2.00
49343;PMS5003;35210;41.606;-87.602;2023-04-30T02:00:37;3.80;3.80;3.00
49343;PMS5003;35210;41.606;-87.602;2023-04-30T02:03:05;6.00;3.40;3.00
49343;PMS5003;35210;41.606;-87.602;2023-04-30T02:05:33;3.40;3.40;2.80
49343;PMS5003;35210;41.606;-87.602;2023-04-30T02:08:02;5.20;5.20;4.00
49343;PMS5003;35210;41.606;-87.602;2023-04-30T02:10:30;3.20;3.20;2.60
49343;PMS5003;35210;41.606;-87.602;2023-04-30T02:12:58;4.80;3.80;2.60
49343;PMS5003;35210;41.606;-87.602;2023-04-30T02:15:26;3.40;3.40;2.40
49343;PMS5003;35210;41.606;-87.602;2023-04-30T02:17:56;4.00;3.00;2.00
49343;PMS5003;35210;41.606;-87.602;2023-04-30T02:20:24;4.40;4.40;3.00
49343;PMS5003;35210;41.606;-87.602;2023-04-30T02:22:52;3.60;3.60;3.00
49343;PMS5003;35210;41.606;-87.602;2023-04-30T02:25:20;6.20;3.80;3.40
49343;PMS5003;35210;41.606;-87.602;2023-04-30T02:27:49;2.80;2.80;2.80
49343;PMS5003;35210;41.606;-87.602;2023-04-30T02:30:17;5.00;3.40;2.00
49343;PMS5003;35210;41.606;-87.602;2023-04-30T02:32:45;4.80;4.80;3.00
49343;PMS5003;35210;41.606;-87.602;2023-04-30T02:35:15;4.20;4.00;3.00
49343;PMS5003;35210;41.606;-87.602;2023-04-30T02:37:43;4.40;4.00;3.00
49343;PMS5003;35210;41.606;-87.602;2023-04-30T02:40:12;4.20;4.20;3.00
49343;PMS5003;35210;41.606;-87.602;2023-04-30T02:42:40;4.80;4.00;3.00
49343;PMS5003;35210;41.606;-87.602;2023-04-30T02:45:08;3.40;3.40;3.00
49343;PMS5003;35210;41.606;-87.602;2023-04-30T02:47:37;4.80;4.80;3.20
49343;PMS5003;35210;41.606;-87.602;2023-04-30T02:50:05;6.80;6.00;3.00
49343;PMS5003;35210;41.606;-87.602;2023-04-30T02:52:36;3.80;3.80;2.60
49343;PMS5003;35210;41.606;-87.602;2023-04-30T02:55:04;3.60;3.60;2.20
49343;PMS5003;35210;41.606;-87.602;2023-04-30T02:57:33;4.00;2.80;2.00
49343;PMS5003;35210;41.606;-87.602;2023-04-30T03:00:01;4.40;4.00;3.00
49343;PMS5003;35210;41.606;-87.602;2023-04-30T03:02:30;3.00;3.00;2.60
49343;PMS5003;35210;41.606;-87.602;2023-04-30T03:04:58;2.80;2.80;2.60
49343;PMS5003;35210;41.606;-87.602;2023-04-30T03:07:26;3.60;3.60;3.40
49343;PMS5003;35210;41.606;-87.602;2023-04-30T03:09:56;5.00;5.00;3.00
49343;PMS5003;35210;41.606;-87.602;2023-04-30T03:12:24;4.00;4.00;2.80
49343;PMS5003;35210;41.606;-87.602;2023-04-30T03:14:52;5.20;5.20;4.00
49343;PMS5003;35210;41.606;-87.602;2023-04-30T03:17:21;4.00;4.00;3.00
49343;PMS5003;35210;41.606;-87.602;2023-04-30T03:19:49;3.80;3.60;2.40
49343;PMS5003;35210;41.606;-87.602;2023-04-30T03:22:17;3.00;3.00;2.00
49343;PMS5003;35210;41.606;-87.602;2023-04-30T03:24:48;4.60;4.60;3.20
49343;PMS5003;35210;41.606;-87.602;2023-04-30T03:27:17;3.00;3.00;2.80
49343;PMS5003;35210;41.606;-87.602;2023-04-30T03:29:45;4.40;3.60;3.00
49343;PMS5003;35210;41.606;-87.602;2023-04-30T03:32:14;3.00;3.00;2.00
49343;PMS5003;35210;41.606;-87.602;2023-04-30T03:34:42;4.60;4.60;3.00
49343;PMS5003;35210;41.606;-87.602;2023-04-30T03:37:10;4.40;3.60;2.60
49343;PMS5003;35210;41.606;-87.602;2023-04-30T03:39:38;3.40;3.40;2.80
49343;PMS5003;35210;41.606;-87.602;2023-04-30T03:42:06;4.00;2.80;2.00
49343;PMS5003;35210;41.606;-87.602;2023-04-30T03:44:36;2.00;2.00;1.00
49343;PMS5003;35210;41.606;-87.602;2023-04-30T03:47:05;3.20;2.20;1.00
49343;PMS5003;35210;41.606;-87.602;2023-04-30T03:49:33;2.00;2.00;2.00
49343;PMS5003;35210;41.606;-87.602;2023-04-30T03:52:01;2.00;2.00;1.20
49343;PMS5003;35210;41.606;-87.602;2023-04-30T03:54:30;2.00;1.00;1.00
49343;PMS5003;35210;41.606;-87.602;2023-04-30T03:56:58;0.00;0.00;0.00
49343;PMS5003;35210;41.606;-87.602;2023-04-30T03:59:29;0.40;0.40;0.00
49343;PMS5003;35210;41.606;-87.602;2023-04-30T04:02:00;0.00;0.00;0.00
49343;PMS5003;35210;41.606;-87.602;2023-04-30T04:04:28;0.00;0.00;0.00
49343;PMS5003;35210;41.606;-87.602;2023-04-30T04:06:57;0.00;0.00;0.00
49343;PMS5003;35210;41.606;-87.602;2023-04-30T04:09:25;0.00;0.00;0.00
49343;PMS5003;35210;41.606;-87.602;2023-04-30T04:11:53;0.00;0.00;0.00
49343;PMS5003;35210;41.606;-87.602;2023-04-30T04:14:22;1.00;0.00;0.00
49343;PMS5003;35210;41.606;-87.602;2023-04-30T04:16:50;0.00;0.00;0.00
49343;PMS5003;35210;41.606;-87.602;2023-04-30T04:19:20;0.00;0.00;0.00
49343;PMS5003;35210;41.606;-87.602;2023-04-30T04:21:48;0.00;0.00;0.00
49343;PMS5003;35210;41.606;-87.602;2023-04-30T04:24:16;0.00;0.00;0.00
49343;PMS5003;35210;41.606;-87.602;2023-04-30T04:26:44;0.00;0.00;0.00
49343;PMS5003;35210;41.606;-87.602;2023-04-30T04:29:12;0.00;0.00;0.00
49343;PMS5003;35210;41.606;-87.602;2023-04-30T04:31:40;0.00;0.00;0.00
49343;PMS5003;35210;41.606;-87.602;2023-04-30T04:34:08;0.00;0.00;0.00
49343;PMS5003;35210;41.606;-87.602;2023-04-30T04:36:38;0.00;0.00;0.00
49343;PMS5003;35210;41.606;-87.602;2023-04-30T04:39:06;0.00;0.00;0.00
49343;PMS5003;35210;41.606;-87.602;2023-04-30T04:41:34;0.00;0.00;0.00
49343;PMS5003;35210;41.606;-87.602;2023-04-30T04:44:02;0.00;0.00;0.00
49343;PMS5003;35210;41.606;-87.602;2023-04-30T04:46:31;0.00;0.00;0.00
49343;PMS5003;35210;41.606;-87.602;2023-04-30T04:49:02;0.20;0.00;0.00
49343;PMS5003;35210;41.606;-87.602;2023-04-30T04:51:31;0.20;0.00;0.00
49343;PMS5003;35210;41.606;-87.602;2023-04-30T04:54:01;0.00;0.00;0.00
49343;PMS5003;35210;41.606;-87.602;2023-04-30T04:56:29;0.00;0.00;0.00
49343;PMS5003;35210;41.606;-87.602;2023-04-30T04:58:57;0.00;0.00;0.00
49343;PMS5003;35210;41.606;-87.602;2023-04-30T05:01:25;0.00;0.00;0.00
49343;PMS5003;35210;41.606;-87.602;2023-04-30T05:03:54;0.00;0.00;0.00
49343;PMS5003;35210;41.606;-87.602;2023-04-30T05:06:22;0.00;0.00;0.00
49343;PMS5003;35210;41.606;-87.602;2023-04-30T05:08:50;2.20;1.20;0.00
49343;PMS5003;35210;41.606;-87.602;2023-04-30T05:11:20;0.00;0.00;0.00
49343;PMS5003;35210;41.606;-87.602;2023-04-30T05:13:50;0.80;0.00;0.00
49343;PMS5003;35210;41.606;-87.602;2023-04-30T05:16:18;0.00;0.00;0.00
49343;PMS5003;35210;41.606;-87.602;2023-04-30T05:18:46;0.00;0.00;0.00
49343;PMS5003;35210;41.606;-87.602;2023-04-30T05:21:14;0.00;0.00;0.00
49343;PMS5003;35210;41.606;-87.602;2023-04-30T05:23:42;0.00;0.00;0.00
49343;PMS5003;35210;41.606;-87.602;2023-04-30T05:26:21;0.00;0.00;0.00
49343;PMS5003;35210;41.606;-87.602;2023-04-30T05:28:51;1.00;1.00;0.40
49343;PMS5003;35210;41.606;-87.602;2023-04-30T05:31:19;1.00;1.00;0.00
49343;PMS5003;35210;41.606;-87.602;2023-04-30T05:33:47;0.20;0.20;0.00
49343;PMS5003;35210;41.606;-87.602;2023-04-30T05:36:16;1.20;1.00;0.20
49343;PMS5003;35210;41.606;-87.602;2023-04-30T05:38:44;1.00;1.00;1.00
49343;PMS5003;35210;41.606;-87.602;2023-04-30T05:41:12;1.20;1.00;0.00
49343;PMS5003;35210;41.606;-87.602;2023-04-30T05:43:42;0.00;0.00;0.00
49343;PMS5003;35210;41.606;-87.602;2023-04-30T05:46:10;1.00;1.00;0.40
49343;PMS5003;35210;41.606;-87.602;2023-04-30T05:48:39;0.40;0.40;0.40
49343;PMS5003;35210;41.606;-87.602;2023-04-30T05:51:07;1.00;1.00;0.40
49343;PMS5003;35210;41.606;-87.602;2023-04-30T05:53:35;1.60;1.60;0.20
49343;PMS5003;35210;41.606;-87.602;2023-04-30T05:56:04;0.00;0.00;0.00
49343;PMS5003;35210;41.606;-87.602;2023-04-30T05:58:34;1.00;1.00;1.00
49343;PMS5003;35210;41.606;-87.602;2023-04-30T06:01:03;1.60;1.60;1.00
49343;PMS5003;35210;41.606;-87.602;2023-04-30T06:03:34;2.00;1.00;1.00
49343;PMS5003;35210;41.606;-87.602;2023-04-30T06:06:05;2.60;2.00;1.00
49343;PMS5003;35210;41.606;-87.602;2023-04-30T06:08:35;1.20;1.20;1.00
49343;PMS5003;35210;41.606;-87.602;2023-04-30T06:11:06;2.60;2.60;2.20
49343;PMS5003;35210;41.606;-87.602;2023-04-30T06:13:34;2.20;1.60;1.00
49343;PMS5003;35210;41.606;-87.602;2023-04-30T06:16:04;2.20;2.20;0.60
49343;PMS5003;35210;41.606;-87.602;2023-04-30T06:18:33;2.80;2.80;1.00
49343;PMS5003;35210;41.606;-87.602;2023-04-30T06:21:01;1.40;1.40;1.00
49343;PMS5003;35210;41.606;-87.602;2023-04-30T06:23:29;2.80;2.20;1.60
49343;PMS5003;35210;41.606;-87.602;2023-04-30T06:25:57;2.00;2.00;1.00
49343;PMS5003;35210;41.606;-87.602;2023-04-30T06:28:25;2.00;2.00;1.60
49343;PMS5003;35210;41.606;-87.602;2023-04-30T06:30:54;2.00;1.40;1.00
49343;PMS5003;35210;41.606;-87.602;2023-04-30T06:33:24;2.80;2.80;1.20
49343;PMS5003;35210;41.606;-87.602;2023-04-30T06:35:53;1.00;1.00;1.00
49343;PMS5003;35210;41.606;-87.602;2023-04-30T06:38:21;1.60;1.60;1.00
49343;PMS5003;35210;41.606;-87.602;2023-04-30T06:40:51;1.80;1.00;0.40
49343;PMS5003;35210;41.606;-87.602;2023-04-30T06:43:22;2.00;2.00;1.60
49343;PMS5003;35210;41.606;-87.602;2023-04-30T06:45:51;2.00;2.00;2.00
49343;PMS5003;35210;41.606;-87.602;2023-04-30T06:48:19;1.00;1.00;1.00
49343;PMS5003;35210;41.606;-87.602;2023-04-30T06:50:49;2.20;2.20;1.00
49343;PMS5003;35210;41.606;-87.602;2023-04-30T06:53:20;2.20;2.00;1.60
49343;PMS5003;35210;41.606;-87.602;2023-04-30T06:55:48;2.00;2.00;1.80
49343;PMS5003;35210;41.606;-87.602;2023-04-30T06:58:18;2.60;1.80;1.00
49343;PMS5003;35210;41.606;-87.602;2023-04-30T07:00:46;2.40;2.00;2.00
49343;PMS5003;35210;41.606;-87.602;2023-04-30T07:03:15;4.80;3.80;2.00
49343;PMS5003;35210;41.606;-87.602;2023-04-30T07:05:44;2.00;2.00;1.20
49343;PMS5003;35210;41.606;-87.602;2023-04-30T07:08:14;2.80;2.80;1.60
49343;PMS5003;35210;41.606;-87.602;2023-04-30T07:10:42;0.00;0.00;0.00
49343;PMS5003;35210;41.606;-87.602;2023-04-30T07:13:10;2.00;2.00;1.20
49343;PMS5003;35210;41.606;-87.602;2023-04-30T07:15:38;2.00;2.00;1.00
49343;PMS5003;35210;41.606;-87.602;2023-04-30T07:18:06;1.40;1.40;0.40
49343;PMS5003;35210;41.606;-87.602;2023-04-30T07:20:34;2.40;2.40;1.40
49343;PMS5003;35210;41.606;-87.602;2023-04-30T07:23:02;3.60;2.40;1.00
49343;PMS5003;35210;41.606;-87.602;2023-04-30T07:25:33;2.00;2.00;1.00
49343;PMS5003;35210;41.606;-87.602;2023-04-30T07:28:02;1.00;1.00;1.00
49343;PMS5003;35210;41.606;-87.602;2023-04-30T07:30:30;1.20;1.20;0.60
49343;PMS5003;35210;41.606;-87.602;2023-04-30T07:32:58;2.00;2.00;1.00
49343;PMS5003;35210;41.606;-87.602;2023-04-30T07:35:26;4.00;2.80;2.00
49343;PMS5003;35210;41.606;-87.602;2023-04-30T07:37:55;3.60;3.00;2.00
49343;PMS5003;35210;41.606;-87.602;2023-04-30T07:40:23;2.40;2.40;1.00
49343;PMS5003;35210;41.606;-87.602;2023-04-30T07:42:53;4.00;2.60;2.00
49343;PMS5003;35210;41.606;-87.602;2023-04-30T07:45:22;3.00;1.80;1.00
49343;PMS5003;35210;41.606;-87.602;2023-04-30T07:47:51;2.20;2.20;1.00
49343;PMS5003;35210;41.606;-87.602;2023-04-30T07:50:19;1.00;1.00;0.00
49343;PMS5003;35210;41.606;-87.602;2023-04-30T07:52:47;1.60;1.60;1.00
49343;PMS5003;35210;41.606;-87.602;2023-04-30T07:55:16;6.00;2.20;1.00
49343;PMS5003;35210;41.606;-87.602;2023-04-30T07:57:44;1.20;1.20;0.20
49343;PMS5003;35210;41.606;-87.602;2023-04-30T08:00:14;3.40;2.40;0.80
49343;PMS5003;35210;41.606;-87.602;2023-04-30T08:02:42;2.60;1.60;1.00
49343;PMS5003;35210;41.606;-87.602;2023-04-30T08:05:12;1.60;1.60;0.40
49343;PMS5003;35210;41.606;-87.602;2023-04-30T08:07:41;2.00;2.00;1.00
49343;PMS5003;35210;41.606;-87.602;2023-04-30T08:10:09;1.00;1.00;1.00
49343;PMS5003;35210;41.606;-87.602;2023-04-30T08:12:37;2.00;2.00;1.00
49343;PMS5003;35210;41.606;-87.602;2023-04-30T08:15:06;2.00;2.00;1.20
49343;PMS5003;35210;41.606;-87.602;2023-04-30T08:17:36;1.00;1.00;1.00
49343;PMS5003;35210;41.606;-87.602;2023-04-30T08:20:04;1.00;1.00;0.40
49343;PMS5003;35210;41.606;-87.602;2023-04-30T08:22:34;2.00;2.00;1.00
49343;PMS5003;35210;41.606;-87.602;2023-04-30T08:25:02;3.20;1.00;0.40
49343;PMS5003;35210;41.606;-87.602;2023-04-30T08:27:30;2.00;2.00;0.00
49343;PMS5003;35210;41.606;-87.602;2023-04-30T08:29:58;2.00;2.00;1.00
49343;PMS5003;35210;41.606;-87.602;2023-04-30T08:32:26;2.20;1.00;0.00
49343;PMS5003;35210;41.606;-87.602;2023-04-30T08:34:56;1.00;1.00;0.00
49343;PMS5003;35210;41.606;-87.602;2023-04-30T08:37:24;1.00;1.00;1.00
49343;PMS5003;35210;41.606;-87.602;2023-04-30T08:39:52;3.00;3.00;1.00
49343;PMS5003;35210;41.606;-87.602;2023-04-30T08:42:20;1.00;1.00;0.40
49343;PMS5003;35210;41.606;-87.602;2023-04-30T08:44:53;2.00;2.00;1.00
49343;PMS5003;35210;41.606;-87.602;2023-04-30T08:47:21;2.00;2.00;1.00
49343;PMS5003;35210;41.606;-87.602;2023-04-30T08:49:50;1.80;1.80;0.40
49343;PMS5003;35210;41.606;-87.602;2023-04-30T08:52:19;1.00;1.00;1.00
49343;PMS5003;35210;41.606;-87.602;2023-04-30T08:54:48;1.00;1.00;1.00
49343;PMS5003;35210;41.606;-87.602;2023-04-30T08:57:18;1.60;1.60;1.00
49343;PMS5003;35210;41.606;-87.602;2023-04-30T08:59:46;2.80;1.40;1.00
49343;PMS5003;35210;41.606;-87.602;2023-04-30T09:02:14;4.00;2.80;1.80
49343;PMS5003;35210;41.606;-87.602;2023-04-30T09:04:43;1.00;1.00;0.60
49343;PMS5003;35210;41.606;-87.602;2023-04-30T09:07:12;3.80;1.00;1.00
49343;PMS5003;35210;41.606;-87.602;2023-04-30T09:09:43;1.80;1.80;1.00
49343;PMS5003;35210;41.606;-87.602;2023-04-30T09:12:11;1.40;1.40;1.00
49343;PMS5003;35210;41.606;-87.602;2023-04-30T09:14:49;1.00;1.00;0.20
49343;PMS5003;35210;41.606;-87.602;2023-04-30T09:17:25;2.00;2.00;1.00
49343;PMS5003;35210;41.606;-87.602;2023-04-30T09:19:54;1.00;1.00;1.00
49343;PMS5003;35210;41.606;-87.602;2023-04-30T09:22:33;2.00;2.00;1.00
49343;PMS5003;35210;41.606;-87.602;2023-04-30T09:25:04;1.00;1.00;1.00
49343;PMS5003;35210;41.606;-87.602;2023-04-30T09:27:33;1.00;1.00;1.00
49343;PMS5003;35210;41.606;-87.602;2023-04-30T09:30:01;1.00;1.00;0.00
49343;PMS5003;35210;41.606;-87.602;2023-04-30T09:32:30;2.20;2.20;1.20
49343;PMS5003;35210;41.606;-87.602;2023-04-30T09:34:58;3.40;1.00;0.60
49343;PMS5003;35210;41.606;-87.602;2023-04-30T09:37:34;2.00;2.00;1.40
49343;PMS5003;35210;41.606;-87.602;2023-04-30T09:40:05;2.00;2.00;2.00
49343;PMS5003;35210;41.606;-87.602;2023-04-30T09:42:34;1.20;1.20;1.20
49343;PMS5003;35210;41.606;-87.602;2023-04-30T09:45:03;1.00;1.00;0.80
49343;PMS5003;35210;41.606;-87.602;2023-04-30T09:47:32;1.20;1.20;1.00
49343;PMS5003;35210;41.606;-87.602;2023-04-30T09:50:00;5.80;5.00;3.80
49343;PMS5003;35210;41.606;-87.602;2023-04-30T09:52:28;7.80;5.00;4.00
49343;PMS5003;35210;41.606;-87.602;2023-04-30T09:54:56;4.80;4.80;3.60
49343;PMS5003;35210;41.606;-87.602;2023-04-30T09:57:26;3.00;3.00;2.00
49343;PMS5003;35210;41.606;-87.602;2023-04-30T10:00:00;4.40;3.60;2.00
49343;PMS5003;35210;41.606;-87.602;2023-04-30T10:02:29;2.80;2.80;2.60
49343;PMS5003;35210;41.606;-87.602;2023-04-30T10:04:58;6.40;6.40;4.80
49343;PMS5003;35210;41.606;-87.602;2023-04-30T10:07:30;5.00;5.00;4.00
49343;PMS5003;35210;41.606;-87.602;2023-04-30T10:10:02;8.40;6.80;4.60
49343;PMS5003;35210;41.606;-87.602;2023-04-30T10:12:37;4.60;4.60;3.20
49343;PMS5003;35210;41.606;-87.602;2023-04-30T10:15:10;6.80;6.80;4.00
49343;PMS5003;35210;41.606;-87.602;2023-04-30T10:17:41;7.40;7.40;5.00
49343;PMS5003;35210;41.606;-87.602;2023-04-30T10:20:15;3.60;3.60;3.00
49343;PMS5003;35210;41.606;-87.602;2023-04-30T10:22:46;4.00;4.00;2.80
49343;PMS5003;35210;41.606;-87.602;2023-04-30T10:25:14;6.00;6.00;4.00
49343;PMS5003;35210;41.606;-87.602;2023-04-30T10:27:46;8.60;8.00;4.60
49343;PMS5003;35210;41.606;-87.602;2023-04-30T10:30:14;12.20;8.60;6.80
49343;PMS5003;35210;41.606;-87.602;2023-04-30T10:32:45;10.40;10.00;6.00
49343;PMS5003;35210;41.606;-87.602;2023-04-30T10:35:29;12.60;12.60;9.00
49343;PMS5003;35210;41.606;-87.602;2023-04-30T10:38:03;11.20;11.20;9.00
49343;PMS5003;35210;41.606;-87.602;2023-04-30T10:40:39;9.00;9.00;7.00
49343;PMS5003;35210;41.606;-87.602;2023-04-30T10:43:09;9.00;9.00;6.20
49343;PMS5003;35210;41.606;-87.602;2023-04-30T10:45:40;7.20;7.20;6.20
49343;PMS5003;35210;41.606;-87.602;2023-04-30T10:48:10;5.00;5.00;4.00
49343;PMS5003;35210;41.606;-87.602;2023-04-30T10:50:41;7.60;5.80;4.00
49343;PMS5003;35210;41.606;-87.602;2023-04-30T10:53:11;4.40;4.40;3.00
49343;PMS5003;35210;41.606;-87.602;2023-04-30T10:55:45;5.60;4.60;3.80
49343;PMS5003;35210;41.606;-87.602;2023-04-30T10:58:25;6.60;6.60;3.80
49343;PMS5003;35210;41.606;-87.602;2023-04-30T11:01:00;7.00;5.00;4.00
49343;PMS5003;35210;41.606;-87.602;2023-04-30T11:03:29;4.00;4.00;3.80
49343;PMS5003;35210;41.606;-87.602;2023-04-30T11:05:58;4.00;3.00;2.00
49343;PMS5003;35210;41.606;-87.602;2023-04-30T11:08:34;4.00;3.40;2.00
49343;PMS5003;35210;41.606;-87.602;2023-04-30T11:11:03;2.00;2.00;1.80
49343;PMS5003;35210;41.606;-87.602;2023-04-30T11:13:43;2.00;2.00;1.80
49343;PMS5003;35210;41.606;-87.602;2023-04-30T11:16:11;1.60;1.60;1.00
49343;PMS5003;35210;41.606;-87.602;2023-04-30T11:18:43;2.60;2.60;1.60
49343;PMS5003;35210;41.606;-87.602;2023-04-30T11:21:12;2.00;2.00;1.60
49343;PMS5003;35210;41.606;-87.602;2023-04-30T11:23:40;2.20;2.20;1.20
49343;PMS5003;35210;41.606;-87.602;2023-04-30T11:26:09;1.60;1.60;1.00
49343;PMS5003;35210;41.606;-87.602;2023-04-30T11:28:37;2.00;1.40;1.00
49343;PMS5003;35210;41.606;-87.602;2023-04-30T11:31:17;2.40;2.40;1.00
49343;PMS5003;35210;41.606;-87.602;2023-04-30T11:33:46;1.00;1.00;0.80
49343;PMS5003;35210;41.606;-87.602;2023-04-30T11:36:15;2.00;2.00;1.20
49343;PMS5003;35210;41.606;-87.602;2023-04-30T11:38:43;1.20;1.20;1.00
49343;PMS5003;35210;41.606;-87.602;2023-04-30T11:41:11;1.80;1.80;1.00
49343;PMS5003;35210;41.606;-87.602;2023-04-30T11:43:39;1.00;1.00;1.00
49343;PMS5003;35210;41.606;-87.602;2023-04-30T11:46:08;2.00;1.00;1.00
49343;PMS5003;35210;41.606;-87.602;2023-04-30T11:48:39;2.00;2.00;0.40
49343;PMS5003;35210;41.606;-87.602;2023-04-30T11:51:14;2.00;2.00;1.60
49343;PMS5003;35210;41.606;-87.602;2023-04-30T11:53:45;2.20;2.00;1.40
49343;PMS5003;35210;41.606;-87.602;2023-04-30T11:56:16;3.00;3.00;2.00
49343;PMS5003;35210;41.606;-87.602;2023-04-30T11:58:45;2.00;2.00;1.20
49343;PMS5003;35210;41.606;-87.602;2023-04-30T12:01:14;2.00;2.00;1.00
49343;PMS5003;35210;41.606;-87.602;2023-04-30T12:03:44;2.00;2.00;1.00
49343;PMS5003;35210;41.606;-87.602;2023-04-30T12:06:20;2.00;2.00;1.00
49343;PMS5003;35210;41.606;-87.602;2023-04-30T12:08:50;3.00;2.00;1.40
49343;PMS5003;35210;41.606;-87.602;2023-04-30T12:11:20;2.00;2.00;1.40
49343;PMS5003;35210;41.606;-87.602;2023-04-30T12:13:50;2.60;1.40;1.00
49343;PMS5003;35210;41.606;-87.602;2023-04-30T12:16:19;2.60;2.60;1.40
49343;PMS5003;35210;41.606;-87.602;2023-04-30T12:18:49;3.00;3.00;2.00
49343;PMS5003;35210;41.606;-87.602;2023-04-30T12:21:17;2.40;2.40;2.00
49343;PMS5003;35210;41.606;-87.602;2023-04-30T12:23:47;1.40;1.40;1.00
49343;PMS5003;35210;41.606;-87.602;2023-04-30T12:26:15;1.00;1.00;1.00
49343;PMS5003;35210;41.606;-87.602;2023-04-30T12:28:45;2.00;2.00;1.00
49343;PMS5003;35210;41.606;-87.602;2023-04-30T12:31:15;1.00;1.00;1.00
49343;PMS5003;35210;41.606;-87.602;2023-04-30T12:33:54;2.00;2.00;1.00
49343;PMS5003;35210;41.606;-87.602;2023-04-30T12:36:28;2.20;2.20;2.00
49343;PMS5003;35210;41.606;-87.602;2023-04-30T12:39:01;1.00;1.00;1.00
49343;PMS5003;35210;41.606;-87.602;2023-04-30T12:41:34;3.40;2.00;2.00
49343;PMS5003;35210;41.606;-87.602;2023-04-30T12:44:16;5.00;1.40;0.00
49343;PMS5003;35210;41.606;-87.602;2023-04-30T12:46:46;4.40;2.60;2.00
49343;PMS5003;35210;41.606;-87.602;2023-04-30T12:49:24;2.20;2.20;2.00
49343;PMS5003;35210;41.606;-87.602;2023-04-30T12:52:00;2.00;1.20;1.00
49343;PMS5003;35210;41.606;-87.602;2023-04-30T12:54:32;3.60;3.00;2.20
49343;PMS5003;35210;41.606;-87.602;2023-04-30T12:57:01;4.00;3.00;2.00
49343;PMS5003;35210;41.606;-87.602;2023-04-30T12:59:31;2.00;2.00;2.00
49343;PMS5003;35210;41.606;-87.602;2023-04-30T13:02:09;3.00;3.00;2.00
49343;PMS5003;35210;41.606;-87.602;2023-04-30T13:04:40;1.00;1.00;1.00
49343;PMS5003;35210;41.606;-87.602;2023-04-30T13:07:09;2.20;2.00;1.00
49343;PMS5003;35210;41.606;-87.602;2023-04-30T13:09:37;1.60;1.00;0.60
49343;PMS5003;35210;41.606;-87.602;2023-04-30T13:12:05;4.60;3.60;1.80
49343;PMS5003;35210;41.606;-87.602;2023-04-30T13:14:33;2.60;2.00;2.00
49343;PMS5003;35210;41.606;-87.602;2023-04-30T13:17:02;3.00;3.00;2.00
49343;PMS5003;35210;41.606;-87.602;2023-04-30T13:19:34;3.20;2.00;2.00
49343;PMS5003;35210;41.606;-87.602;2023-04-30T13:22:07;4.00;2.40;1.40
49343;PMS5003;35210;41.606;-87.602;2023-04-30T13:24:35;2.00;2.00;1.80
49343;PMS5003;35210;41.606;-87.602;2023-04-30T13:27:03;3.00;3.00;2.00
49343;PMS5003;35210;41.606;-87.602;2023-04-30T13:29:31;6.60;1.60;1.60
49343;PMS5003;35210;41.606;-87.602;2023-04-30T13:31:59;2.60;2.40;1.00
49343;PMS5003;35210;41.606;-87.602;2023-04-30T13:34:28;2.00;2.00;1.60
49343;PMS5003;35210;41.606;-87.602;2023-04-30T13:36:57;2.00;2.00;1.00
49343;PMS5003;35210;41.606;-87.602;2023-04-30T13:39:27;2.00;2.00;1.00
49343;PMS5003;35210;41.606;-87.602;2023-04-30T13:41:55;3.80;2.40;1.20
49343;PMS5003;35210;41.606;-87.602;2023-04-30T13:44:23;1.40;1.40;1.00
49343;PMS5003;35210;41.606;-87.602;2023-04-30T13:46:51;2.00;2.00;1.00
49343;PMS5003;35210;41.606;-87.602;2023-04-30T13:49:20;1.60;1.60;1.60
49343;PMS5003;35210;41.606;-87.602;2023-04-30T13:51:48;2.60;2.20;1.00
49343;PMS5003;35210;41.606;-87.602;2023-04-30T13:54:16;1.40;1.00;1.00
49343;PMS5003;35210;41.606;-87.602;2023-04-30T13:56:46;4.00;3.40;2.40
49343;PMS5003;35210;41.606;-87.602;2023-04-30T13:59:14;2.20;2.20;1.80
49343;PMS5003;35210;41.606;-87.602;2023-04-30T14:01:42;3.40;3.40;2.40
49343;PMS5003;35210;41.606;-87.602;2023-04-30T14:04:10;3.00;3.00;2.40
49343;PMS5003;35210;41.606;-87.602;2023-04-30T14:06:38;3.20;3.20;2.20
49343;PMS5003;35210;41.606;-87.602;2023-04-30T14:09:07;4.00;4.00;2.00
49343;PMS5003;35210;41.606;-87.602;2023-04-30T14:11:36;4.20;3.20;3.00